sensor_id;sensor_type;location;lat;lon;timestamp;pressure;altitude;pressure_sealevel;temperature;humidity
86704;BME280;77454;50.076;14.856;2024-03-29T11:10:06;97708;;;21.9;23.2
86704;BME280;77454;50.076;14.856;2024-03-29T11:12:05;97700;;;22.2;23.0
86704;BME280;77454;50.076;14.856;2024-03-29T11:14:08;97694;;;22.5;22.4
86704;BME280;77454;50.076;14.856;2024-03-29T11:16:05;97692;;;23.1;22.6
86704;BME280;77454;50.076;14.856;2024-03-29T11:18:05;97697;;;23.1;22.6
86704;BME280;77454;50.076;14.856;2024-03-29T11:20:06;97690;;;22.8;22.8
86704;BME280;77454;50.076;14.856;2024-03-29T11:22:06;97693;;;22.7;23.0
86704;BME280;77454;50.076;14.856;2024-03-29T11:24:05;97691;;;22.9;22.6
86704;BME280;77454;50.076;14.856;2024-03-29T11:26:06;97693;;;22.8;23.1
86704;BME280;77454;50.076;14.856;2024-03-29T11:28:08;97689;;;23.0;23.1
86704;BME280;77454;50.076;14.856;2024-03-29T11:30:06;97689;;;22.9;22.6
86704;BME280;77454;50.076;14.856;2024-03-29T11:32:05;97691;;;22.6;23.1
86704;BME280;77454;50.076;14.856;2024-03-29T11:34:09;97696;;;22.6;23.1
86704;BME280;77454;50.076;14.856;2024-03-29T11:36:15;97692;;;22.3;22.4
86704;BME280;77454;50.076;14.856;2024-03-29T11:38:05;97687;;;22.0;23.5
86704;BME280;77454;50.076;14.856;2024-03-29T11:40:05;97689;;;21.9;22.9
86704;BME280;77454;50.076;14.856;2024-03-29T11:42:05;97685;;;21.8;23.1
86704;BME280;77454;50.076;14.856;2024-03-29T11:44:06;97682;;;21.9;23.9
86704;BME280;77454;50.076;14.856;2024-03-29T11:46:07;97682;;;21.9;23.4
86704;BME280;77454;50.076;14.856;2024-03-29T11:48:08;97680;;;22.0;23.7
86704;BME280;77454;50.076;14.856;2024-03-29T11:50:07;97687;;;22.0;23.9
86704;BME280;77454;50.076;14.856;2024-03-29T11:52:05;97691;;;22.0;23.7
86704;BME280;77454;50.076;14.856;2024-03-29T11:54:05;97698;;;21.9;24.5
86704;BME280;77454;50.076;14.856;2024-03-29T11:56:05;97697;;;21.9;24.6
86704;BME280;77454;50.076;14.856;2024-03-29T11:58:05;97699;;;22.0;24.8
86704;BME280;77454;50.076;14.856;2024-03-29T12:00:06;97701;;;22.0;24.5
86704;BME280;77454;50.076;14.856;2024-03-29T12:02:07;97700;;;21.8;23.0
86704;BME280;77454;50.076;14.856;2024-03-29T12:04:05;97693;;;21.9;23.0
86704;BME280;77454;50.076;14.856;2024-03-29T12:06:05;97688;;;21.8;23.5
86704;BME280;77454;50.076;14.856;2024-03-29T12:08:05;97683;;;21.3;24.7
86704;BME280;77454;50.076;14.856;2024-03-29T12:10:08;97679;;;21.1;24.6
86704;BME280;77454;50.076;14.856;2024-03-29T12:12:09;97676;;;21.1;24.4
86704;BME280;77454;50.076;14.856;2024-03-29T12:14:12;97678;;;21.2;25.4
86704;BME280;77454;50.076;14.856;2024-03-29T12:16:05;97687;;;21.1;26.1
86704;BME280;77454;50.076;14.856;2024-03-29T12:18:05;97694;;;20.9;25.9
86704;BME280;77454;50.076;14.856;2024-03-29T12:20:11;97701;;;20.9;26.5
86704;BME280;77454;50.076;14.856;2024-03-29T12:22:05;97706;;;20.7;26.8
86704;BME280;77454;50.076;14.856;2024-03-29T12:24:05;97710;;;20.9;25.8
86704;BME280;77454;50.076;14.856;2024-03-29T12:26:05;97714;;;21.0;26.4
86704;BME280;77454;50.076;14.856;2024-03-29T12:28:06;97716;;;21.1;26.4
86704;BME280;77454;50.076;14.856;2024-03-29T12:30:06;97720;;;21.1;26.5
86704;BME280;77454;50.076;14.856;2024-03-29T12:32:06;97727;;;21.3;26.4
86704;BME280;77454;50.076;14.856;2024-03-29T12:34:07;97725;;;21.5;26.1
86704;BME280;77454;50.076;14.856;2024-03-29T12:36:06;97723;;;21.8;25.5
86704;BME280;77454;50.076;14.856;2024-03-29T12:38:07;97727;;;22.2;25.7
86704;BME280;77454;50.076;14.856;2024-03-29T12:40:11;97730;;;22.4;25.2
86704;BME280;77454;50.076;14.856;2024-03-29T12:42:05;97729;;;22.6;24.8
86704;BME280;77454;50.076;14.856;2024-03-29T12:44:06;97727;;;22.4;25.4
86704;BME280;77454;50.076;14.856;2024-03-29T12:46:05;97728;;;22.3;24.8
86704;BME280;77454;50.076;14.856;2024-03-29T12:48:15;97723;;;22.3;23.9
86704;BME280;77454;50.076;14.856;2024-03-29T12:50:05;97725;;;22.5;23.9
86704;BME280;77454;50.076;14.856;2024-03-29T12:52:05;97727;;;22.5;23.7
86704;BME280;77454;50.076;14.856;2024-03-29T12:54:05;97724;;;23.0;23.2
86704;BME280;77454;50.076;14.856;2024-03-29T12:56:05;97719;;;23.5;22.9
86704;BME280;77454;50.076;14.856;2024-03-29T12:58:09;97716;;;23.3;23.4
86704;BME280;77454;50.076;14.856;2024-03-29T13:00:08;97708;;;23.5;23.1
86704;BME280;77454;50.076;14.856;2024-03-29T13:02:05;97703;;;23.8;22.8
86704;BME280;77454;50.076;14.856;2024-03-29T13:04:05;97700;;;23.9;23.3
86704;BME280;77454;50.076;14.856;2024-03-29T13:06:05;97700;;;23.7;24.0
86704;BME280;77454;50.076;14.856;2024-03-29T13:08:07;97696;;;23.4;24.2
86704;BME280;77454;50.076;14.856;2024-03-29T13:10:12;97691;;;23.8;24.2
86704;BME280;77454;50.076;14.856;2024-03-29T13:12:06;97689;;;23.6;24.3
86704;BME280;77454;50.076;14.856;2024-03-29T13:14:06;97685;;;23.4;24.8
86704;BME280;77454;50.076;14.856;2024-03-29T13:16:05;97679;;;23.5;24.3
86704;BME280;77454;50.076;14.856;2024-03-29T13:18:06;97675;;;23.2;24.9
86704;BME280;77454;50.076;14.856;2024-03-29T13:20:05;97675;;;23.1;24.6
86704;BME280;77454;50.076;14.856;2024-03-29T13:22:06;97672;;;23.5;24.7
86704;BME280;77454;50.076;14.856;2024-03-29T13:24:05;97662;;;23.4;24.5
86704;BME280;77454;50.076;14.856;2024-03-29T13:26:06;97658;;;23.1;24.8
86704;BME280;77454;50.076;14.856;2024-03-29T13:28:07;97662;;;23.0;24.8
86704;BME280;77454;50.076;14.856;2024-03-29T13:30:08;97661;;;23.0;25.0
86704;BME280;77454;50.076;14.856;2024-03-29T13:32:05;97658;;;22.8;25.5
86704;BME280;77454;50.076;14.856;2024-03-29T13:34:12;97660;;;22.4;26.2
86704;BME280;77454;50.076;14.856;2024-03-29T13:36:05;97662;;;22.5;26.0
86704;BME280;77454;50.076;14.856;2024-03-29T13:38:05;97662;;;22.5;25.6
86704;BME280;77454;50.076;14.856;2024-03-29T13:40:06;97662;;;22.6;25.9
86704;BME280;77454;50.076;14.856;2024-03-29T13:42:05;97661;;;22.4;25.9
86704;BME280;77454;50.076;14.856;2024-03-29T13:44:05;97664;;;22.3;26.3
86704;BME280;77454;50.076;14.856;2024-03-29T13:46:06;97660;;;22.3;26.5
86704;BME280;77454;50.076;14.856;2024-03-29T13:48:05;97656;;;22.4;26.0
86704;BME280;77454;50.076;14.856;2024-03-29T13:50:05;97651;;;22.3;25.8
86704;BME280;77454;50.076;14.856;2024-03-29T13:52:05;97645;;;22.4;26.5
86704;BME280;77454;50.076;14.856;2024-03-29T13:54:05;97642;;;22.6;27.3
86704;BME280;77454;50.076;14.856;2024-03-29T13:56:06;97648;;;22.8;26.7
86704;BME280;77454;50.076;14.856;2024-03-29T13:58:06;97652;;;22.8;26.5
86704;BME280;77454;50.076;14.856;2024-03-29T14:00:06;97661;;;22.9;25.8
86704;BME280;77454;50.076;14.856;2024-03-29T14:02:05;97661;;;23.2;25.3
86704;BME280;77454;50.076;14.856;2024-03-29T14:04:05;97660;;;23.2;25.5
86704;BME280;77454;50.076;14.856;2024-03-29T14:06:05;97666;;;23.2;25.4
86704;BME280;77454;50.076;14.856;2024-03-29T14:08:05;97663;;;23.7;24.8
86704;BME280;77454;50.076;14.856;2024-03-29T14:10:06;97654;;;23.7;25.4
86704;BME280;77454;50.076;14.856;2024-03-29T14:12:05;97650;;;24.1;25.9
86704;BME280;77454;50.076;14.856;2024-03-29T14:14:07;97642;;;24.1;25.7
86704;BME280;77454;50.076;14.856;2024-03-29T14:16:05;97639;;;23.6;26.7
86704;BME280;77454;50.076;14.856;2024-03-29T14:18:05;97639;;;23.1;26.9
86704;BME280;77454;50.076;14.856;2024-03-29T14:20:05;97632;;;23.1;26.1
86704;BME280;77454;50.076;14.856;2024-03-29T14:22:06;97629;;;23.0;26.4
86704;BME280;77454;50.076;14.856;2024-03-29T14:24:05;97628;;;22.5;26.5
86704;BME280;77454;50.076;14.856;2024-03-29T14:26:05;97630;;;22.5;26.6
86704;BME280;77454;50.076;14.856;2024-03-29T14:28:05;97637;;;22.3;27.0
86704;BME280;77454;50.076;14.856;2024-03-29T14:30:05;97634;;;22.4;27.5
86704;BME280;77454;50.076;14.856;2024-03-29T14:32:05;97631;;;22.0;27.5
86704;BME280;77454;50.076;14.856;2024-03-29T14:34:05;97629;;;22.0;28.0
86704;BME280;77454;50.076;14.856;2024-03-29T14:36:05;97620;;;22.5;28.4
86704;BME280;77454;50.076;14.856;2024-03-29T14:38:05;97623;;;22.2;29.1
86704;BME280;77454;50.076;14.856;2024-03-29T14:40:05;97621;;;22.1;29.2
86704;BME280;77454;50.076;14.856;2024-03-29T14:42:08;97618;;;22.2;29.2
86704;BME280;77454;50.076;14.856;2024-03-29T14:44:07;97620;;;22.0;29.4
86704;BME280;77454;50.076;14.856;2024-03-29T14:46:05;97620;;;22.1;29.5
86704;BME280;77454;50.076;14.856;2024-03-29T14:48:05;97619;;;22.1;30.0
86704;BME280;77454;50.076;14.856;2024-03-29T14:50:07;97618;;;22.1;29.8
86704;BME280;77454;50.076;14.856;2024-03-29T14:52:05;97618;;;21.9;30.1
86704;BME280;77454;50.076;14.856;2024-03-29T14:54:06;97616;;;21.9;30.3
86704;BME280;77454;50.076;14.856;2024-03-29T14:56:05;97612;;;21.7;30.6
86704;BME280;77454;50.076;14.856;2024-03-29T14:58:05;97609;;;21.6;30.7
86704;BME280;77454;50.076;14.856;2024-03-29T15:00:06;97607;;;21.5;31.0
86704;BME280;77454;50.076;14.856;2024-03-29T15:02:05;97607;;;21.4;31.4
86704;BME280;77454;50.076;14.856;2024-03-29T15:04:05;97610;;;21.3;31.4
86704;BME280;77454;50.076;14.856;2024-03-29T15:06:05;97612;;;21.4;32.0
86704;BME280;77454;50.076;14.856;2024-03-29T15:08:05;97612;;;21.3;32.6
86704;BME280;77454;50.076;14.856;2024-03-29T15:10:10;97614;;;21.4;32.7
86704;BME280;77454;50.076;14.856;2024-03-29T15:12:05;97615;;;21.3;32.5
86704;BME280;77454;50.076;14.856;2024-03-29T15:14:06;97613;;;21.3;32.6
86704;BME280;77454;50.076;14.856;2024-03-29T15:16:05;97615;;;21.5;32.1
86704;BME280;77454;50.076;14.856;2024-03-29T15:18:05;97612;;;21.4;32.8
86704;BME280;77454;50.076;14.856;2024-03-29T15:20:07;97615;;;21.0;33.5
86704;BME280;77454;50.076;14.856;2024-03-29T15:22:07;97619;;;21.0;33.2
86704;BME280;77454;50.076;14.856;2024-03-29T15:24:05;97619;;;21.3;32.9
86704;BME280;77454;50.076;14.856;2024-03-29T15:26:05;97614;;;21.5;33.0
86704;BME280;77454;50.076;14.856;2024-03-29T15:28:15;97610;;;21.6;32.6
86704;BME280;77454;50.076;14.856;2024-03-29T15:30:05;97609;;;21.5;33.2
86704;BME280;77454;50.076;14.856;2024-03-29T15:32:10;97610;;;21.4;33.7
86704;BME280;77454;50.076;14.856;2024-03-29T15:34:06;97613;;;21.1;34.3
86704;BME280;77454;50.076;14.856;2024-03-29T15:36:05;97616;;;21.0;34.6
86704;BME280;77454;50.076;14.856;2024-03-29T15:38:11;97618;;;20.8;35.0
86704;BME280;77454;50.076;14.856;2024-03-29T15:40:07;97615;;;20.6;35.1
86704;BME280;77454;50.076;14.856;2024-03-29T15:42:05;97615;;;20.4;35.3
86704;BME280;77454;50.076;14.856;2024-03-29T15:44:06;97615;;;20.3;35.6
86704;BME280;77454;50.076;14.856;2024-03-29T15:46:05;97615;;;20.4;35.4
86704;BME280;77454;50.076;14.856;2024-03-29T15:48:05;97613;;;20.5;35.2
86704;BME280;77454;50.076;14.856;2024-03-29T15:50:05;97610;;;20.5;35.3
86704;BME280;77454;50.076;14.856;2024-03-29T15:52:06;97610;;;20.5;35.4
86704;BME280;77454;50.076;14.856;2024-03-29T15:54:06;97611;;;20.6;35.6
86704;BME280;77454;50.076;14.856;2024-03-29T15:56:05;97612;;;20.5;35.7
86704;BME280;77454;50.076;14.856;2024-03-29T15:58:05;97614;;;20.2;36.1
86704;BME280;77454;50.076;14.856;2024-03-29T16:00:05;97610;;;20.0;36.3
86704;BME280;77454;50.076;14.856;2024-03-29T16:02:05;97609;;;20.0;36.6
86704;BME280;77454;50.076;14.856;2024-03-29T16:04:05;97611;;;19.9;37.0
86704;BME280;77454;50.076;14.856;2024-03-29T16:06:05;97610;;;19.8;36.9
86704;BME280;77454;50.076;14.856;2024-03-29T16:08:05;97609;;;19.8;37.1
86704;BME280;77454;50.076;14.856;2024-03-29T16:10:05;97612;;;19.8;37.1
86704;BME280;77454;50.076;14.856;2024-03-29T16:12:05;97613;;;19.7;37.1
86704;BME280;77454;50.076;14.856;2024-03-29T16:14:05;97615;;;19.8;36.8
86704;BME280;77454;50.076;14.856;2024-03-29T16:16:05;97613;;;20.1;36.5
86704;BME280;77454;50.076;14.856;2024-03-29T16:18:05;97603;;;20.4;36.2
86704;BME280;77454;50.076;14.856;2024-03-29T16:20:05;97596;;;20.4;36.6
86704;BME280;77454;50.076;14.856;2024-03-29T16:22:05;97598;;;20.3;37.0
86704;BME280;77454;50.076;14.856;2024-03-29T16:24:05;97604;;;20.2;37.4
86704;BME280;77454;50.076;14.856;2024-03-29T16:26:05;97606;;;20.1;37.5
86704;BME280;77454;50.076;14.856;2024-03-29T16:28:05;97603;;;20.1;37.5
86704;BME280;77454;50.076;14.856;2024-03-29T16:30:05;97594;;;20.4;37.1
86704;BME280;77454;50.076;14.856;2024-03-29T16:32:05;97592;;;20.5;37.3
86704;BME280;77454;50.076;14.856;2024-03-29T16:34:05;97593;;;20.3;37.7
86704;BME280;77454;50.076;14.856;2024-03-29T16:36:05;97594;;;20.0;38.6
86704;BME280;77454;50.076;14.856;2024-03-29T16:38:08;97592;;;19.8;39.0
86704;BME280;77454;50.076;14.856;2024-03-29T16:40:05;97592;;;19.6;39.3
86704;BME280;77454;50.076;14.856;2024-03-29T16:42:05;97591;;;19.4;39.8
86704;BME280;77454;50.076;14.856;2024-03-29T16:44:05;97589;;;19.5;39.8
86704;BME280;77454;50.076;14.856;2024-03-29T16:46:05;97580;;;19.4;40.5
86704;BME280;77454;50.076;14.856;2024-03-29T16:48:05;97593;;;19.2;41.3
86704;BME280;77454;50.076;14.856;2024-03-29T16:50:07;97594;;;19.0;41.6
86704;BME280;77454;50.076;14.856;2024-03-29T16:52:05;97595;;;18.8;42.0
86704;BME280;77454;50.076;14.856;2024-03-29T16:54:05;97595;;;18.8;42.2
86704;BME280;77454;50.076;14.856;2024-03-29T16:56:05;97599;;;18.6;42.9
86704;BME280;77454;50.076;14.856;2024-03-29T16:58:05;97608;;;18.5;43.2
86704;BME280;77454;50.076;14.856;2024-03-29T17:00:08;97620;;;18.4;43.3
86704;BME280;77454;50.076;14.856;2024-03-29T17:02:05;97632;;;18.6;43.2
86704;BME280;77454;50.076;14.856;2024-03-29T17:04:05;97639;;;18.5;43.5
86704;BME280;77454;50.076;14.856;2024-03-29T17:06:05;97640;;;18.5;43.8
86704;BME280;77454;50.076;14.856;2024-03-29T17:08:05;97642;;;18.3;44.4
86704;BME280;77454;50.076;14.856;2024-03-29T17:10:05;97644;;;18.2;44.6
86704;BME280;77454;50.076;14.856;2024-03-29T17:12:05;97641;;;18.2;44.6
86704;BME280;77454;50.076;14.856;2024-03-29T17:14:05;97637;;;18.3;44.5
86704;BME280;77454;50.076;14.856;2024-03-29T17:16:05;97634;;;18.4;44.3
86704;BME280;77454;50.076;14.856;2024-03-29T17:18:05;97630;;;18.6;43.8
86704;BME280;77454;50.076;14.856;2024-03-29T17:20:06;97631;;;18.6;43.7
86704;BME280;77454;50.076;14.856;2024-03-29T17:22:05;97631;;;18.7;43.9
86704;BME280;77454;50.076;14.856;2024-03-29T17:24:05;97628;;;18.7;43.8
86704;BME280;77454;50.076;14.856;2024-03-29T17:26:06;97626;;;18.6;44.4
86704;BME280;77454;50.076;14.856;2024-03-29T17:28:05;97627;;;18.5;44.5
86704;BME280;77454;50.076;14.856;2024-03-29T17:30:06;97630;;;18.4;44.8
86704;BME280;77454;50.076;14.856;2024-03-29T17:32:05;97633;;;18.4;44.8
86704;BME280;77454;50.076;14.856;2024-03-29T17:34:06;97635;;;18.2;45.3
86704;BME280;77454;50.076;14.856;2024-03-29T17:36:05;97636;;;18.2;45.2
86704;BME280;77454;50.076;14.856;2024-03-29T17:38:05;97636;;;18.3;45.0
86704;BME280;77454;50.076;14.856;2024-03-29T17:40:06;97635;;;18.1;45.9
86704;BME280;77454;50.076;14.856;2024-03-29T17:42:05;97633;;;18.0;46.0
86704;BME280;77454;50.076;14.856;2024-03-29T17:44:05;97631;;;17.9;46.1
86704;BME280;77454;50.076;14.856;2024-03-29T17:46:05;97634;;;17.8;46.3
86704;BME280;77454;50.076;14.856;2024-03-29T17:48:05;97634;;;17.9;46.2
86704;BME280;77454;50.076;14.856;2024-03-29T17:50:05;97636;;;17.8;46.2
86704;BME280;77454;50.076;14.856;2024-03-29T17:52:05;97640;;;17.8;46.4
86704;BME280;77454;50.076;14.856;2024-03-29T17:54:05;97642;;;17.6;46.9
86704;BME280;77454;50.076;14.856;2024-03-29T17:56:05;97643;;;17.7;46.6
86704;BME280;77454;50.076;14.856;2024-03-29T17:58:05;97646;;;17.6;47.0
86704;BME280;77454;50.076;14.856;2024-03-29T18:00:08;97647;;;17.6;47.3
86704;BME280;77454;50.076;14.856;2024-03-29T18:02:05;97647;;;17.6;47.7
86704;BME280;77454;50.076;14.856;2024-03-29T18:04:05;97648;;;17.4;48.1
86704;BME280;77454;50.076;14.856;2024-03-29T18:06:05;97651;;;17.3;48.4
86704;BME280;77454;50.076;14.856;2024-03-29T18:08:05;97654;;;17.2;49.0
86704;BME280;77454;50.076;14.856;2024-03-29T18:10:05;97657;;;17.1;49.1
86704;BME280;77454;50.076;14.856;2024-03-29T18:12:05;97657;;;17.1;49.1
86704;BME280;77454;50.076;14.856;2024-03-29T18:14:05;97657;;;17.2;48.8
86704;BME280;77454;50.076;14.856;2024-03-29T18:16:06;97658;;;17.2;49.3
86704;BME280;77454;50.076;14.856;2024-03-29T18:18:05;97659;;;17.1;49.3
86704;BME280;77454;50.076;14.856;2024-03-29T18:20:05;97656;;;17.1;48.9
86704;BME280;77454;50.076;14.856;2024-03-29T18:22:05;97656;;;17.1;49.1
86704;BME280;77454;50.076;14.856;2024-03-29T18:24:05;97657;;;17.1;49.1
86704;BME280;77454;50.076;14.856;2024-03-29T18:26:05;97659;;;17.1;49.2
86704;BME280;77454;50.076;14.856;2024-03-29T18:28:05;97662;;;17.0;49.5
86704;BME280;77454;50.076;14.856;2024-03-29T18:30:05;97662;;;17.0;49.5
86704;BME280;77454;50.076;14.856;2024-03-29T18:32:05;97662;;;17.0;49.8
86704;BME280;77454;50.076;14.856;2024-03-29T18:34:05;97662;;;17.0;49.9
86704;BME280;77454;50.076;14.856;2024-03-29T18:36:05;97664;;;17.0;49.6
86704;BME280;77454;50.076;14.856;2024-03-29T18:38:05;97667;;;16.9;50.2
86704;BME280;77454;50.076;14.856;2024-03-29T18:40:05;97670;;;16.9;49.7
86704;BME280;77454;50.076;14.856;2024-03-29T18:42:05;97671;;;17.0;49.5
86704;BME280;77454;50.076;14.856;2024-03-29T18:44:05;97671;;;17.1;49.4
86704;BME280;77454;50.076;14.856;2024-03-29T18:46:06;97669;;;17.1;49.1
86704;BME280;77454;50.076;14.856;2024-03-29T18:48:06;97668;;;17.2;49.2
86704;BME280;77454;50.076;14.856;2024-03-29T18:50:05;97666;;;17.3;48.9
86704;BME280;77454;50.076;14.856;2024-03-29T18:52:05;97664;;;17.3;48.8
86704;BME280;77454;50.076;14.856;2024-03-29T18:54:05;97663;;;17.3;48.8
86704;BME280;77454;50.076;14.856;2024-03-29T18:56:05;97659;;;17.2;49.0
86704;BME280;77454;50.076;14.856;2024-03-29T18:58:05;97656;;;17.3;48.8
86704;BME280;77454;50.076;14.856;2024-03-29T19:00:06;97653;;;17.2;49.0
86704;BME280;77454;50.076;14.856;2024-03-29T19:02:07;97655;;;17.1;49.3
86704;BME280;77454;50.076;14.856;2024-03-29T19:04:05;97652;;;17.1;49.0
86704;BME280;77454;50.076;14.856;2024-03-29T19:06:05;97651;;;17.2;48.6
86704;BME280;77454;50.076;14.856;2024-03-29T19:08:05;97652;;;17.2;48.6
86704;BME280;77454;50.076;14.856;2024-03-29T19:10:05;97652;;;17.3;48.2
86704;BME280;77454;50.076;14.856;2024-03-29T19:12:05;97653;;;17.1;48.7
86704;BME280;77454;50.076;14.856;2024-03-29T19:14:05;97655;;;17.0;48.6
86704;BME280;77454;50.076;14.856;2024-03-29T19:16:05;97656;;;16.9;48.7
86704;BME280;77454;50.076;14.856;2024-03-29T19:18:06;97656;;;17.1;48.1
86704;BME280;77454;50.076;14.856;2024-03-29T19:20:05;97658;;;17.2;47.8
86704;BME280;77454;50.076;14.856;2024-03-29T19:22:05;97660;;;17.1;47.6
86704;BME280;77454;50.076;14.856;2024-03-29T19:24:05;97658;;;17.2;47.3
86704;BME280;77454;50.076;14.856;2024-03-29T19:26:06;97658;;;17.2;47.3
86704;BME280;77454;50.076;14.856;2024-03-29T19:28:05;97659;;;17.2;47.4
86704;BME280;77454;50.076;14.856;2024-03-29T19:30:05;97658;;;17.2;47.4
86704;BME280;77454;50.076;14.856;2024-03-29T19:32:05;97657;;;17.2;47.2
86704;BME280;77454;50.076;14.856;2024-03-29T19:34:05;97657;;;17.2;47.2
86704;BME280;77454;50.076;14.856;2024-03-29T19:36:05;97654;;;17.2;47.3
86704;BME280;77454;50.076;14.856;2024-03-29T19:38:05;97657;;;17.0;47.8
86704;BME280;77454;50.076;14.856;2024-03-29T19:40:05;97655;;;17.0;47.7
86704;BME280;77454;50.076;14.856;2024-03-29T19:42:05;97653;;;17.1;47.6
86704;BME280;77454;50.076;14.856;2024-03-29T19:44:07;97656;;;17.1;47.6
86704;BME280;77454;50.076;14.856;2024-03-29T19:46:05;97658;;;17.0;47.9
86704;BME280;77454;50.076;14.856;2024-03-29T19:48:06;97657;;;16.9;48.2
86704;BME280;77454;50.076;14.856;2024-03-29T19:50:05;97656;;;16.9;48.4
86704;BME280;77454;50.076;14.856;2024-03-29T19:52:05;97656;;;16.9;48.2
86704;BME280;77454;50.076;14.856;2024-03-29T19:54:05;97658;;;16.9;48.0
86704;BME280;77454;50.076;14.856;2024-03-29T19:56:05;97657;;;16.9;48.2
86704;BME280;77454;50.076;14.856;2024-03-29T19:58:05;97660;;;16.8;48.5
86704;BME280;77454;50.076;14.856;2024-03-29T20:00:05;97663;;;16.8;48.7
86704;BME280;77454;50.076;14.856;2024-03-29T20:02:05;97663;;;16.7;49.0
86704;BME280;77454;50.076;14.856;2024-03-29T20:04:05;97666;;;16.7;48.8
86704;BME280;77454;50.076;14.856;2024-03-29T20:06:05;97666;;;16.8;48.5
86704;BME280;77454;50.076;14.856;2024-03-29T20:08:05;97669;;;16.9;48.3
86704;BME280;77454;50.076;14.856;2024-03-29T20:10:05;97672;;;17.0;48.2
86704;BME280;77454;50.076;14.856;2024-03-29T20:12:05;97676;;;16.9;48.5
86704;BME280;77454;50.076;14.856;2024-03-29T20:14:05;97681;;;16.9;48.4
86704;BME280;77454;50.076;14.856;2024-03-29T20:16:07;97687;;;17.0;48.2
86704;BME280;77454;50.076;14.856;2024-03-29T20:18:06;97691;;;17.0;48.2
86704;BME280;77454;50.076;14.856;2024-03-29T20:20:05;97694;;;17.1;48.2
86704;BME280;77454;50.076;14.856;2024-03-29T20:22:07;97695;;;17.2;47.8
86704;BME280;77454;50.076;14.856;2024-03-29T20:24:05;97698;;;17.2;48.0
86704;BME280;77454;50.076;14.856;2024-03-29T20:26:06;97696;;;17.2;48.1
86704;BME280;77454;50.076;14.856;2024-03-29T20:28:05;97693;;;17.1;48.6
86704;BME280;77454;50.076;14.856;2024-03-29T20:30:08;97691;;;17.1;48.2
86704;BME280;77454;50.076;14.856;2024-03-29T20:32:08;97687;;;17.2;48.1
86704;BME280;77454;50.076;14.856;2024-03-29T20:34:05;97686;;;17.2;48.0
86704;BME280;77454;50.076;14.856;2024-03-29T20:36:05;97682;;;17.2;48.2
86704;BME280;77454;50.076;14.856;2024-03-29T20:38:05;97683;;;17.1;48.3
86704;BME280;77454;50.076;14.856;2024-03-29T20:40:05;97683;;;17.0;48.5
86704;BME280;77454;50.076;14.856;2024-03-29T20:42:05;97682;;;17.0;48.7
86704;BME280;77454;50.076;14.856;2024-03-29T20:44:05;97681;;;17.0;48.8
86704;BME280;77454;50.076;14.856;2024-03-29T20:46:06;97681;;;17.0;48.5
86704;BME280;77454;50.076;14.856;2024-03-29T20:48:05;97681;;;17.2;48.3
86704;BME280;77454;50.076;14.856;2024-03-29T20:50:07;97683;;;17.2;48.2
86704;BME280;77454;50.076;14.856;2024-03-29T20:52:05;97685;;;17.3;47.9
86704;BME280;77454;50.076;14.856;2024-03-29T20:54:05;97688;;;17.4;47.7
86704;BME280;77454;50.076;14.856;2024-03-29T20:56:05;97689;;;17.5;48.0
86704;BME280;77454;50.076;14.856;2024-03-29T20:58:06;97685;;;17.5;48.1
86704;BME280;77454;50.076;14.856;2024-03-29T21:00:05;97690;;;17.4;48.7
86704;BME280;77454;50.076;14.856;2024-03-29T21:02:15;97689;;;17.2;49.3
86704;BME280;77454;50.076;14.856;2024-03-29T21:04:15;97687;;;17.0;49.9
86704;BME280;77454;50.076;14.856;2024-03-29T21:06:05;97686;;;17.0;50.0
86704;BME280;77454;50.076;14.856;2024-03-29T21:08:06;97685;;;17.0;50.1
86704;BME280;77454;50.076;14.856;2024-03-29T21:10:05;97684;;;16.9;50.5
86704;BME280;77454;50.076;14.856;2024-03-29T21:12:06;97686;;;16.9;50.3
86704;BME280;77454;50.076;14.856;2024-03-29T21:14:05;97686;;;16.8;50.9
86704;BME280;77454;50.076;14.856;2024-03-29T21:16:05;97687;;;16.7;51.0
86704;BME280;77454;50.076;14.856;2024-03-29T21:18:05;97684;;;16.6;51.2
86704;BME280;77454;50.076;14.856;2024-03-29T21:20:09;97684;;;16.6;51.1
86704;BME280;77454;50.076;14.856;2024-03-29T21:22:05;97685;;;16.4;51.7
86704;BME280;77454;50.076;14.856;2024-03-29T21:24:05;97684;;;16.3;51.7
86704;BME280;77454;50.076;14.856;2024-03-29T21:26:05;97684;;;16.4;51.7
86704;BME280;77454;50.076;14.856;2024-03-29T21:28:05;97686;;;16.4;51.8
86704;BME280;77454;50.076;14.856;2024-03-29T21:30:07;97690;;;16.5;51.5
86704;BME280;77454;50.076;14.856;2024-03-29T21:32:05;97693;;;16.5;51.2
86704;BME280;77454;50.076;14.856;2024-03-29T21:34:05;97697;;;16.5;51.4
86704;BME280;77454;50.076;14.856;2024-03-29T21:36:05;97698;;;16.5;51.4
86704;BME280;77454;50.076;14.856;2024-03-29T21:38:06;97699;;;16.2;52.4
86704;BME280;77454;50.076;14.856;2024-03-29T21:40:05;97698;;;16.0;53.1
86704;BME280;77454;50.076;14.856;2024-03-29T21:42:06;97697;;;15.9;53.4
86704;BME280;77454;50.076;14.856;2024-03-29T21:44:05;97696;;;15.8;54.1
86704;BME280;77454;50.076;14.856;2024-03-29T21:46:05;97694;;;15.5;55.1
86704;BME280;77454;50.076;14.856;2024-03-29T21:48:05;97693;;;15.6;54.3
86704;BME280;77454;50.076;14.856;2024-03-29T21:50:05;97693;;;15.7;54.5
86704;BME280;77454;50.076;14.856;2024-03-29T21:52:05;97689;;;15.6;54.5
86704;BME280;77454;50.076;14.856;2024-03-29T21:54:05;97689;;;15.5;55.0
86704;BME280;77454;50.076;14.856;2024-03-29T21:56:07;97688;;;15.5;54.7
86704;BME280;77454;50.076;14.856;2024-03-29T21:58:06;97692;;;15.4;55.3
86704;BME280;77454;50.076;14.856;2024-03-29T22:00:05;97691;;;15.3;55.4
86704;BME280;77454;50.076;14.856;2024-03-29T22:02:06;97692;;;15.3;55.2
86704;BME280;77454;50.076;14.856;2024-03-29T22:04:05;97693;;;15.4;54.8
86704;BME280;77454;50.076;14.856;2024-03-29T22:06:05;97695;;;15.6;54.6
86704;BME280;77454;50.076;14.856;2024-03-29T22:08:05;97696;;;15.5;54.7
86704;BME280;77454;50.076;14.856;2024-03-29T22:10:05;97698;;;15.7;53.9
86704;BME280;77454;50.076;14.856;2024-03-29T22:12:05;97704;;;15.9;53.6
86704;BME280;77454;50.076;14.856;2024-03-29T22:14:05;97707;;;15.8;53.9
86704;BME280;77454;50.076;14.856;2024-03-29T22:16:05;97708;;;15.9;53.6
86704;BME280;77454;50.076;14.856;2024-03-29T22:18:05;97708;;;15.8;53.9
86704;BME280;77454;50.076;14.856;2024-03-29T22:20:05;97709;;;15.8;53.9